Time;durP1;ratioP1;P1;durP2;ratioP2;P2;SDS_P1;SDS_P2;PMS_P1;PMS_P2;Temp;Humidity;BMP_temperature;BMP_pressure;BME280_temperature;BME280_humidity;BME280_pressure;Samples;Min_cycle;Max_cycle;Signal;HPM_P1;HPM_P2
2022/10/29 00:00:00;;;;;;;22.98;13.27;;;;;;;13.71;100.00;102064.75;5071841;28;20032;-70
2022/10/29 00:02:26;;;;;;;23.98;12.98;;;;;;;13.71;100.00;102063.94;5071936;28;20054;-70
2022/10/29 00:04:51;;;;;;;21.92;13.00;;;;;;;13.68;100.00;102065.16;5071909;28;20033;-70
2022/10/29 00:07:16;;;;;;;21.35;11.15;;;;;;;13.68;100.00;102058.97;5071792;28;20494;-70
2022/10/29 00:09:42;;;;;;;18.70;11.27;;;;;;;13.67;100.00;102052.75;5083074;28;20490;-70
2022/10/29 00:12:07;;;;;;;23.27;12.07;;;;;;;13.64;100.00;102049.63;5091075;28;20132;-70
2022/10/29 00:14:32;;;;;;;22.40;12.23;;;;;;;13.63;100.00;102039.91;5072214;28;20085;-70
2022/10/29 00:16:58;;;;;;;25.15;11.27;;;;;;;13.59;100.00;102036.75;5090424;28;20489;-70
2022/10/29 00:19:26;;;;;;;23.67;11.65;;;;;;;13.58;100.00;102035.13;5091076;28;20048;-70
2022/10/29 00:21:51;;;;;;;18.85;11.40;;;;;;;13.46;100.00;102037.44;5090961;28;20417;-70
2022/10/29 00:24:17;;;;;;;21.80;11.07;;;;;;;13.46;100.00;102036.59;5090739;28;20028;-70
2022/10/29 00:26:42;;;;;;;22.67;12.25;;;;;;;13.44;100.00;102047.53;5075887;28;20115;-70
2022/10/29 00:29:08;;;;;;;21.13;12.50;;;;;;;13.38;100.00;102038.34;5070557;28;20186;-70
2022/10/29 00:31:33;;;;;;;26.52;12.02;;;;;;;13.37;100.00;102038.56;5071119;28;20036;-70
2022/10/29 00:33:58;;;;;;;18.20;10.20;;;;;;;13.41;100.00;102045.19;5071280;28;20074;-70
2022/10/29 00:36:26;;;;;;;21.77;11.80;;;;;;;13.45;100.00;102038.44;5071246;28;20040;-70
2022/10/29 00:38:52;;;;;;;21.17;11.35;;;;;;;13.51;100.00;102039.56;5071247;28;20387;-70
2022/10/29 00:41:27;;;;;;;23.60;12.20;;;;;;;13.53;100.00;102042.88;5071069;28;20017;-70
2022/10/29 00:44:14;;;;;;;25.25;11.93;;;;;;;13.51;100.00;102043.06;5071117;28;20558;-70
2022/10/29 00:46:41;;;;;;;24.65;10.65;;;;;;;13.50;100.00;102048.63;5074638;28;20028;-70
2022/10/29 00:49:07;;;;;;;22.98;11.80;;;;;;;13.51;100.00;102043.06;5090344;28;20493;-70
2022/10/29 00:51:33;;;;;;;20.73;11.70;;;;;;;13.54;100.00;102036.50;5090138;28;20040;-69
2022/10/29 00:54:06;;;;;;;22.02;11.23;;;;;;;13.66;100.00;102039.53;5089678;28;20036;-70
2022/10/29 00:56:36;;;;;;;21.98;11.80;;;;;;;13.66;100.00;102042.22;5089157;28;20035;-70
2022/10/29 00:59:04;;;;;;;25.40;12.55;;;;;;;13.72;100.00;102047.66;5090233;28;20103;-70
2022/10/29 01:01:29;;;;;;;22.35;11.35;;;;;;;13.67;100.00;102047.38;5090106;28;20047;-70
2022/10/29 01:03:55;;;;;;;16.65;10.10;;;;;;;13.61;100.00;102050.00;5090093;28;20058;-70
2022/10/29 01:06:23;;;;;;;19.67;10.88;;;;;;;13.57;100.00;102058.41;5071688;28;20039;-70
2022/10/29 01:08:48;;;;;;;26.27;12.32;;;;;;;13.65;100.00;102057.47;5089979;28;21029;-70
2022/10/29 01:11:55;;;;;;;23.05;11.80;;;;;;;13.68;100.00;102058.97;5089858;28;20043;-70
2022/10/29 01:14:29;;;;;;;21.40;11.15;;;;;;;13.71;100.00;102051.34;5051749;28;20040;-70
2022/10/29 01:17:21;;;;;;;18.05;11.73;;;;;;;13.75;100.00;102041.06;5090512;28;20395;-70
2022/10/29 01:20:05;;;;;;;21.80;12.10;;;;;;;13.73;100.00;102041.28;5089742;28;20483;-70
2022/10/29 01:22:36;;;;;;;24.08;12.18;;;;;;;13.71;100.00;102045.16;5089509;28;20085;-70
2022/10/29 01:25:37;;;;;;;22.97;11.97;;;;;;;13.74;100.00;102034.06;5089787;28;20475;-70
2022/10/29 01:28:15;;;;;;;25.80;11.60;;;;;;;13.73;100.00;102025.19;5088669;28;20089;-69
2022/10/29 01:31:08;;;;;;;24.80;11.75;;;;;;;13.76;100.00;102021.31;5089525;28;20052;-70
2022/10/29 01:33:42;;;;;;;24.35;13.20;;;;;;;13.76;100.00;102021.31;5089540;28;20043;-70
2022/10/29 01:36:24;;;;;;;20.88;12.30;;;;;;;13.77;100.00;102028.31;5089582;28;20034;-70
2022/10/29 01:39:16;;;;;;;21.85;12.02;;;;;;;13.79;100.00;102034.34;5089406;28;20028;-70
2022/10/29 01:41:53;;;;;;;19.52;9.95;;;;;;;13.78;100.00;102019.25;5089348;28;20016;-70
2022/10/29 01:44:36;;;;;;;19.63;11.40;;;;;;;13.83;100.00;102027.56;5089279;28;20032;-70
2022/10/29 01:47:04;;;;;;;21.58;10.98;;;;;;;13.82;100.00;102018.69;5089388;28;20024;-70
2022/10/29 01:49:43;;;;;;;22.52;11.13;;;;;;;13.85;100.00;102011.28;5089263;28;20043;-70
2022/10/29 01:52:12;;;;;;;24.67;12.27;;;;;;;13.83;100.00;101995.38;5089160;28;20028;-70
2022/10/29 01:54:46;;;;;;;21.92;10.98;;;;;;;13.82;100.00;102001.78;5089145;28;20032;-70
2022/10/29 01:57:28;;;;;;;24.27;11.48;;;;;;;13.80;100.00;102001.94;5088388;28;20031;-70
2022/10/29 02:00:00;;;;;;;26.13;11.38;;;;;;;13.76;100.00;101992.63;5089274;28;20024;-70
2022/10/29 02:02:40;;;;;;;20.35;11.10;;;;;;;13.71;100.00;101987.00;5089127;28;20031;-70
2022/10/29 02:05:28;;;;;;;21.58;10.65;;;;;;;13.68;100.00;101978.53;5089149;28;20463;-70
2022/10/29 02:08:02;;;;;;;26.00;10.75;;;;;;;13.58;100.00;101963.56;5071052;28;20043;-70
2022/10/29 02:10:39;;;;;;;17.55;10.48;;;;;;;13.56;100.00;101967.44;5089016;28;20031;-70
2022/10/29 02:13:08;;;;;;;21.00;11.70;;;;;;;13.53;100.00;101979.38;5088947;28;20052;-70
2022/10/29 02:15:38;;;;;;;21.42;10.75;;;;;;;13.48;100.00;101981.78;5088882;28;20043;-70
2022/10/29 02:18:06;;;;;;;20.33;10.45;;;;;;;13.46;100.00;101986.50;5088985;28;20016;-70
2022/10/29 02:20:32;;;;;;;23.42;10.45;;;;;;;13.42;100.00;101979.88;5089025;28;20486;-70
2022/10/29 02:22:57;;;;;;;20.65;11.25;;;;;;;13.42;100.00;101974.50;5088976;28;20033;-70
2022/10/29 02:25:23;;;;;;;19.23;9.35;;;;;;;13.34;100.00;101974.63;5088703;28;20035;-70
2022/10/29 02:27:48;;;;;;;24.42;10.98;;;;;;;13.36;100.00;101978.78;5088693;28;20028;-70
2022/10/29 02:30:14;;;;;;;19.30;9.35;;;;;;;13.28;100.00;101970.84;5072997;28;20113;-64
2022/10/29 02:32:39;;;;;;;23.52;10.02;;;;;;;13.22;100.00;101966.19;5077408;28;20074;-64
2022/10/29 02:35:05;;;;;;;20.58;9.52;;;;;;;13.21;100.00;101961.03;5088848;28;20081;-63
2022/10/29 02:37:31;;;;;;;19.42;10.65;;;;;;;13.18;100.00;101961.38;5088832;28;20067;-63
2022/10/29 02:39:56;;;;;;;20.73;10.88;;;;;;;13.26;100.00;101959.47;5088771;28;20619;-64
2022/10/29 02:42:21;;;;;;;20.23;10.48;;;;;;;13.27;100.00;101961.13;5088563;28;20028;-64
2022/10/29 02:44:47;;;;;;;21.85;11.10;;;;;;;13.28;100.00;101951.25;5088687;28;20028;-64
2022/10/29 02:47:12;;;;;;;19.30;10.23;;;;;;;13.22;100.00;101950.09;5088637;28;20031;-64
2022/10/29 02:49:38;;;;;;;18.13;9.32;;;;;;;13.08;100.00;101941.09;5088784;28;20036;-64
2022/10/29 02:52:03;;;;;;;21.20;10.15;;;;;;;13.04;100.00;101945.13;5088814;28;20977;-64
2022/10/29 02:54:28;;;;;;;17.85;10.02;;;;;;;13.03;100.00;101945.34;5068839;28;20040;-64
2022/10/29 02:56:54;;;;;;;19.27;9.52;;;;;;;12.98;100.00;101939.72;5069240;28;20577;-64
2022/10/29 02:59:19;;;;;;;18.20;10.20;;;;;;;13.02;100.00;101946.34;5069305;28;20653;-63
2022/10/29 03:01:44;;;;;;;17.90;9.27;;;;;;;13.00;100.00;101933.16;5069361;28;20115;-63
2022/10/29 03:04:10;;;;;;;18.77;10.95;;;;;;;13.07;100.00;101942.13;5069187;28;20174;-63
2022/10/29 03:06:36;;;;;;;21.13;9.95;;;;;;;13.07;100.00;101941.25;5069225;28;20120;-63
2022/10/29 03:09:02;;;;;;;22.50;10.48;;;;;;;13.07;100.00;101952.81;5070659;28;20056;-64
2022/10/29 03:11:27;;;;;;;20.88;10.68;;;;;;;13.10;100.00;101943.59;5076308;28;20359;-63
2022/10/29 03:13:52;;;;;;;19.73;10.75;;;;;;;13.13;100.00;101940.53;5092246;28;20478;-64
2022/10/29 03:16:17;;;;;;;18.98;10.57;;;;;;;13.04;100.00;101942.47;5092105;28;20047;-64
2022/10/29 03:18:43;;;;;;;19.30;9.68;;;;;;;12.85;100.00;101927.78;5092115;28;20043;-64
2022/10/29 03:21:08;;;;;;;19.05;10.85;;;;;;;12.82;100.00;101938.06;5091921;28;20040;-64
2022/10/29 03:23:33;;;;;;;21.95;10.70;;;;;;;12.81;100.00;101928.34;5092199;28;20040;-64
2022/10/29 03:25:59;;;;;;;20.45;10.52;;;;;;;12.77;100.00;101914.50;5091913;28;20118;-63
2022/10/29 03:28:26;;;;;;;22.17;12.77;;;;;;;12.89;100.00;101922.88;5092056;28;20066;-64
2022/10/29 03:30:52;;;;;;;26.60;13.30;;;;;;;12.93;100.00;101926.88;5091762;28;20056;-63
2022/10/29 03:33:17;;;;;;;27.13;13.05;;;;;;;12.93;100.00;101924.19;5091893;28;20051;-63
2022/10/29 03:35:43;;;;;;;23.75;13.00;;;;;;;12.96;100.00;101921.13;5091787;28;20050;-63
2022/10/29 03:38:08;;;;;;;26.70;14.23;;;;;;;12.96;100.00;101917.63;5091715;28;20543;-64
2022/10/29 03:40:33;;;;;;;24.33;11.15;;;;;;;12.83;100.00;101920.97;5091678;28;20478;-64
2022/10/29 03:42:59;;;;;;;21.05;10.60;;;;;;;12.70;100.00;101918.94;5091769;28;20383;-64
2022/10/29 03:45:24;;;;;;;15.77;8.60;;;;;;;12.67;100.00;101920.13;5091962;28;20032;-64
2022/10/29 03:47:49;;;;;;;18.45;9.20;;;;;;;12.58;100.00;101909.72;5072335;28;20028;-63
2022/10/29 03:50:15;;;;;;;16.65;8.90;;;;;;;12.56;100.00;101909.88;5072317;28;20885;-63
2022/10/29 03:52:40;;;;;;;20.10;9.55;;;;;;;12.61;100.00;101917.38;5072095;28;20132;-63
2022/10/29 03:55:06;;;;;;;19.90;10.65;;;;;;;12.62;100.00;101913.66;5072111;28;20169;-64
2022/10/29 03:57:32;;;;;;;19.70;10.73;;;;;;;12.61;100.00;101909.34;5072057;28;20032;-63
2022/10/29 03:59:57;;;;;;;21.02;8.85;;;;;;;12.63;100.00;101910.00;5071913;28;20024;-63
2022/10/29 04:02:23;;;;;;;18.75;9.23;;;;;;;12.64;100.00;101912.47;5071913;28;20479;-64
2022/10/29 04:04:49;;;;;;;19.10;9.57;;;;;;;12.64;100.00;101914.31;5072014;28;20034;-63
2022/10/29 04:07:14;;;;;;;23.63;10.43;;;;;;;12.67;100.00;101913.94;5071941;28;20037;-64
2022/10/29 04:09:39;;;;;;;19.63;9.82;;;;;;;12.69;100.00;101917.28;5071914;28;20063;-63
2022/10/29 04:12:05;;;;;;;20.45;11.05;;;;;;;12.50;100.00;101871.31;5071678;28;20174;-64
2022/10/29 04:14:31;;;;;;;20.25;9.63;;;;;;;12.57;100.00;101883.94;5071798;28;20126;-63
2022/10/29 04:16:57;;;;;;;20.30;10.15;;;;;;;12.58;100.00;101881.09;5071656;28;20047;-64
2022/10/29 04:19:22;;;;;;;18.10;9.68;;;;;;;12.57;100.00;101873.25;5071609;28;20538;-63
2022/10/29 04:21:47;;;;;;;16.77;8.57;;;;;;;12.58;100.00;101875.75;5070573;28;20029;-64
2022/10/29 04:24:13;;;;;;;24.13;11.00;;;;;;;12.56;100.00;101871.59;5071534;28;20029;-64
2022/10/29 04:26:40;;;;;;;15.27;8.80;;;;;;;12.58;100.00;101869.56;5071472;28;20024;-63
2022/10/29 04:29:06;;;;;;;21.45;9.50;;;;;;;12.57;100.00;101871.41;5071255;28;20052;-64
2022/10/29 04:31:31;;;;;;;19.90;10.50;;;;;;;12.61;100.00;101883.41;5070535;28;20479;-63
2022/10/29 04:33:56;;;;;;;18.33;9.63;;;;;;;12.62;100.00;101878.88;5090566;28;20387;-64
2022/10/29 04:36:22;;;;;;;18.23;9.25;;;;;;;12.64;100.00;101874.19;5090611;28;20028;-64
2022/10/29 04:38:49;;;;;;;24.27;10.45;;;;;;;12.63;100.00;101864.50;5090616;28;20114;-64
2022/10/29 04:41:14;;;;;;;20.45;10.85;;;;;;;12.61;100.00;101859.31;5090336;28;20042;-70
2022/10/29 04:43:39;;;;;;;18.00;9.07;;;;;;;12.59;100.00;101861.34;5090482;28;20036;-70
2022/10/29 04:46:05;;;;;;;19.83;9.40;;;;;;;12.62;100.00;101868.19;5090358;28;20050;-70
2022/10/29 04:48:30;;;;;;;20.23;10.40;;;;;;;12.63;100.00;101851.13;5090269;28;20032;-70
2022/10/29 04:50:55;;;;;;;19.30;10.88;;;;;;;12.67;100.00;101860.41;5090213;28;20028;-70
2022/10/29 04:53:21;;;;;;;22.65;10.32;;;;;;;12.64;100.00;101855.44;5089928;28;20028;-70
2022/10/29 04:55:46;;;;;;;21.50;10.70;;;;;;;12.66;100.00;101866.81;5089945;28;20072;-70
2022/10/29 04:58:18;;;;;;;19.48;9.43;;;;;;;12.65;100.00;101881.19;5089853;28;20036;-70
2022/10/29 05:00:44;;;;;;;25.17;10.20;;;;;;;12.64;100.00;101879.53;5089831;28;20070;-70
2022/10/29 05:03:10;;;;;;;23.88;11.55;;;;;;;12.59;100.00;101876.56;5090131;28;20032;-70
2022/10/29 05:05:38;;;;;;;18.58;9.23;;;;;;;12.52;100.00;101872.97;5090093;28;20024;-70
2022/10/29 05:08:04;;;;;;;22.95;11.52;;;;;;;12.51;100.00;101861.44;5090053;28;20107;-70
2022/10/29 05:10:33;;;;;;;21.95;10.68;;;;;;;12.47;100.00;101866.34;5070484;28;20028;-70
2022/10/29 05:13:00;;;;;;;27.25;11.23;;;;;;;12.41;100.00;101861.72;5070336;28;20455;-70
2022/10/29 05:15:27;;;;;;;18.23;10.60;;;;;;;12.41;100.00;101867.06;5052751;28;20036;-70
2022/10/29 05:17:52;;;;;;;25.52;10.10;;;;;;;12.43;100.00;101853.50;5070044;28;20032;-70
2022/10/29 05:20:18;;;;;;;24.30;12.73;;;;;;;12.39;100.00;101846.84;5070532;28;20036;-70
2022/10/29 05:22:43;;;;;;;21.38;10.52;;;;;;;12.39;100.00;101853.06;5070093;28;20029;-70
2022/10/29 05:25:08;;;;;;;20.95;11.18;;;;;;;12.39;100.00;101862.91;5070069;28;20179;-70
2022/10/29 05:27:34;;;;;;;19.20;10.23;;;;;;;12.39;100.00;101862.91;5069984;28;20028;-70
2022/10/29 05:29:59;;;;;;;19.55;9.93;;;;;;;12.37;100.00;101860.44;5070175;28;20098;-70
2022/10/29 05:32:27;;;;;;;19.65;9.40;;;;;;;12.31;100.00;101853.13;5069557;28;20102;-70
2022/10/29 05:34:52;;;;;;;22.60;11.32;;;;;;;12.32;100.00;101852.13;5069894;28;20045;-70
2022/10/29 05:37:18;;;;;;;23.60;12.13;;;;;;;12.39;100.00;101850.38;5070083;28;20045;-70
2022/10/29 05:39:43;;;;;;;20.92;11.60;;;;;;;12.41;100.00;101851.00;5089194;28;20020;-70
2022/10/29 05:42:08;;;;;;;21.70;10.25;;;;;;;12.41;100.00;101853.69;5074614;28;20032;-70
2022/10/29 05:44:34;;;;;;;18.67;10.27;;;;;;;12.41;100.00;101847.50;5069979;28;20051;-70
2022/10/29 05:46:59;;;;;;;19.92;10.10;;;;;;;12.44;100.00;101845.31;5069886;28;20025;-70
2022/10/29 05:49:24;;;;;;;21.85;8.82;;;;;;;12.49;100.00;101839.38;5069955;28;20032;-70
2022/10/29 05:51:51;;;;;;;18.83;9.00;;;;;;;12.52;100.00;101830.16;5069574;28;20047;-70
2022/10/29 05:54:17;;;;;;;23.35;10.52;;;;;;;12.55;100.00;101829.78;5052243;28;20062;-70
2022/10/29 05:56:42;;;;;;;19.75;11.23;;;;;;;12.54;100.00;101839.66;5069955;28;20037;-70
2022/10/29 05:59:08;;;;;;;21.80;11.55;;;;;;;12.57;100.00;101841.97;5069058;28;20047;-70
2022/10/29 06:01:33;;;;;;;19.25;10.20;;;;;;;12.61;100.00;101842.44;5069766;28;20028;-70
2022/10/29 06:04:00;;;;;;;18.98;10.18;;;;;;;12.60;100.00;101832.72;5069813;28;20041;-70
2022/10/29 06:06:25;;;;;;;23.00;9.93;;;;;;;12.60;100.00;101828.22;5069737;28;20094;-70
2022/10/29 06:08:51;;;;;;;17.92;10.25;;;;;;;12.61;100.00;101835.22;5069750;28;20463;-70
2022/10/29 06:11:16;;;;;;;21.90;10.38;;;;;;;12.60;100.00;101827.38;5069801;28;20029;-70
2022/10/29 06:13:41;;;;;;;18.67;10.32;;;;;;;12.56;100.00;101818.06;5070103;28;20502;-70
2022/10/29 06:16:07;;;;;;;18.77;11.20;;;;;;;12.55;100.00;101809.22;5069570;28;20020;-70
2022/10/29 06:18:32;;;;;;;18.52;11.32;;;;;;;12.59;100.00;101823.06;5069056;28;20922;-70
2022/10/29 06:20:59;;;;;;;20.60;11.13;;;;;;;12.62;100.00;101803.94;5077833;28;20060;-70
2022/10/29 06:23:25;;;;;;;23.88;11.20;;;;;;;12.64;100.00;101816.13;5088674;28;20036;-70
2022/10/29 06:25:50;;;;;;;21.67;12.32;;;;;;;12.69;100.00;101816.41;5088499;28;20039;-70
2022/10/29 06:28:17;;;;;;;25.77;13.10;;;;;;;12.79;100.00;101823.31;5088633;28;20058;-70
2022/10/29 06:30:48;;;;;;;23.90;11.73;;;;;;;12.86;100.00;101827.75;5088684;28;20090;-69
2022/10/29 06:33:14;;;;;;;21.10;11.77;;;;;;;12.92;100.00;101834.19;5088800;28;20036;-70
2022/10/29 06:35:39;;;;;;;22.95;12.13;;;;;;;12.98;100.00;101827.25;5087740;28;20539;-70
2022/10/29 06:38:05;;;;;;;24.25;12.68;;;;;;;13.05;100.00;101838.88;5088091;28;20115;-70
2022/10/29 06:40:30;;;;;;;23.80;13.70;;;;;;;13.15;100.00;101842.03;5088285;28;20024;-70
2022/10/29 06:43:06;;;;;;;23.27;12.07;;;;;;;13.21;100.00;101840.47;5088696;28;20074;-70
2022/10/29 06:45:33;;;;;;;25.95;12.45;;;;;;;13.26;100.00;101846.09;5074504;28;20031;-70
2022/10/29 06:48:00;;;;;;;28.80;13.05;;;;;;;13.29;100.00;101832.34;5075495;28;20063;-70
2022/10/29 06:50:26;;;;;;;31.02;16.30;;;;;;;13.33;100.00;101838.97;5073182;28;20032;-70
2022/10/29 06:52:58;;;;;;;22.67;12.35;;;;;;;13.38;100.00;101849.94;5072970;28;20503;-70
2022/10/29 06:55:24;;;;;;;28.42;13.68;;;;;;;13.39;100.00;101851.63;5073062;28;20032;-70
2022/10/29 06:58:02;;;;;;;24.40;12.68;;;;;;;13.38;100.00;101844.59;5072908;28;20043;-70
2022/10/29 07:00:29;;;;;;;28.90;12.07;;;;;;;13.38;100.00;101840.06;5072195;28;20036;-70
2022/10/29 07:02:55;;;;;;;26.83;13.05;;;;;;;13.42;100.00;101843.19;5072628;28;20021;-70
2022/10/29 07:05:21;;;;;;;29.00;12.20;;;;;;;13.39;100.00;101832.88;5073069;28;20119;-72
2022/10/29 07:07:46;;;;;;;30.98;13.15;;;;;;;13.37;100.00;101843.78;5085967;28;20122;-70
2022/10/29 07:10:12;;;;;;;19.77;9.93;;;;;;;13.37;100.00;101840.25;5092161;28;20089;-70
2022/10/29 07:12:44;;;;;;;26.30;13.68;;;;;;;13.40;100.00;101852.44;5092030;28;20085;-70
2022/10/29 07:15:10;;;;;;;;;;;;;;;13.49;100.00;101845.94;5092664;28;20477;-70
2022/10/29 07:17:35;;;;;;;22.27;11.15;;;;;;;13.49;100.00;101838.75;5092058;28;19916;-70
2022/10/29 07:20:01;;;;;;;25.88;12.15;;;;;;;13.51;100.00;101842.03;5091666;28;20038;-70
2022/10/29 07:22:27;;;;;;;27.02;12.48;;;;;;;13.52;100.00;101835.69;5091863;28;20043;-70
2022/10/29 07:24:52;;;;;;;27.35;12.40;;;;;;;13.57;100.00;101835.94;5080932;28;20107;-70
2022/10/29 07:27:17;;;;;;;27.88;13.45;;;;;;;13.60;100.00;101840.09;5074061;28;20032;-71
2022/10/29 07:29:42;;;;;;;24.83;12.98;;;;;;;13.65;100.00;101839.47;5090898;28;20048;-72
2022/10/29 07:32:08;;;;;;;29.35;13.52;;;;;;;13.72;100.00;101851.09;5091645;28;20123;-72
2022/10/29 07:34:33;;;;;;;25.02;13.55;;;;;;;13.74;100.00;101831.13;5091582;28;20055;-71
2022/10/29 07:36:58;;;;;;;25.23;13.23;;;;;;;13.85;100.00;101836.97;5070449;28;20150;-72
2022/10/29 07:39:24;;;;;;;23.42;11.95;;;;;;;13.87;100.00;101824.22;5091675;28;20036;-64
2022/10/29 07:41:49;;;;;;;21.88;12.05;;;;;;;13.84;100.00;101812.03;5091572;28;20569;-65
2022/10/29 07:44:14;;;;;;;26.10;13.25;;;;;;;13.86;100.00;101815.34;5091524;28;20141;-65
2022/10/29 07:46:40;;;;;;;23.55;12.43;;;;;;;13.87;100.00;101825.03;5091230;28;20032;-65
2022/10/29 07:49:05;;;;;;;30.45;12.57;;;;;;;13.89;100.00;101817.63;5091493;28;20036;-65
2022/10/29 07:51:30;;;;;;;22.30;13.48;;;;;;;13.99;100.00;101823.50;5091196;28;20127;-65
2022/10/29 07:53:56;;;;;;;25.20;12.15;;;;;;;14.03;100.00;101822.06;5091239;28;20112;-65
2022/10/29 07:56:21;;;;;;;23.80;13.25;;;;;;;14.03;100.00;101814.00;5089839;28;20024;-64
2022/10/29 07:58:46;;;;;;;26.42;14.23;;;;;;;14.10;100.00;101818.63;5091328;28;20067;-65
2022/10/29 08:01:12;;;;;;;23.65;12.85;;;;;;;14.16;100.00;101820.50;5091067;28;20126;-64
2022/10/29 08:03:37;;;;;;;26.23;14.23;;;;;;;14.28;100.00;101831.50;5090877;28;20071;-65
2022/10/29 08:06:03;;;;;;;23.50;11.98;;;;;;;14.30;100.00;101816.84;5091238;28;20059;-65
2022/10/29 08:08:29;;;;;;;24.70;12.23;;;;;;;14.29;100.00;101809.84;5090977;28;20032;-64
2022/10/29 08:10:59;;;;;;;28.15;13.02;;;;;;;14.29;100.00;101809.84;5091214;28;20028;-64
2022/10/29 08:13:24;;;;;;;28.73;14.35;;;;;;;14.35;100.00;101817.09;5090783;28;20131;-64
2022/10/29 08:15:49;;;;;;;29.23;13.43;;;;;;;14.44;100.00;101823.97;5090816;28;20120;-64
2022/10/29 08:18:16;;;;;;;33.42;15.13;;;;;;;14.55;100.00;101813.72;5090760;28;20877;-65
2022/10/29 08:20:42;;;;;;;27.38;15.45;;;;;;;14.56;100.00;101813.50;5090296;28;20036;-64
2022/10/29 08:23:08;;;;;;;30.77;14.73;;;;;;;14.66;100.00;101819.34;5090529;28;20032;-64
2022/10/29 08:25:39;;;;;;;25.40;13.98;;;;;;;14.72;100.00;101817.72;5071296;28;20043;-64
2022/10/29 08:28:07;;;;;;;26.33;13.60;;;;;;;14.80;100.00;101806.81;5071229;28;20017;-64
2022/10/29 08:30:33;;;;;;;30.00;14.63;;;;;;;14.82;100.00;101799.38;5070925;28;20127;-65
2022/10/29 08:32:58;;;;;;;26.00;15.88;;;;;;;14.95;100.00;101798.59;5053248;28;20139;-64
2022/10/29 08:35:23;;;;;;;22.52;14.13;;;;;;;15.09;100.00;101802.13;5071263;28;20032;-64
2022/10/29 08:37:49;;;;;;;27.75;14.65;;;;;;;15.16;100.00;101794.09;5070345;28;20036;-65
2022/10/29 08:40:55;;;;;;;22.23;12.70;;;;;;;15.27;100.00;101790.78;5070752;28;20103;-65
2022/10/29 08:43:38;;;;;;;22.30;13.52;;;;;;;15.30;100.00;101801.13;5048493;28;20506;-67
2022/10/29 08:46:14;;;;;;;29.73;14.13;;;;;;;15.30;100.00;101796.63;5071216;28;20113;-66
2022/10/29 08:48:46;;;;;;;30.75;13.02;;;;;;;15.32;100.00;101801.75;5070941;28;20032;-66
2022/10/29 08:51:41;;;;;;;23.27;13.15;;;;;;;15.42;100.00;101809.44;5070605;28;20055;-66
2022/10/29 08:54:12;;;;;;;23.85;14.30;;;;;;;15.51;100.00;101822.47;5068395;28;20048;-67
2022/10/29 08:56:43;;;;;;;23.17;14.60;;;;;;;15.66;100.00;101821.44;5070653;28;20051;-66
2022/10/29 08:59:13;;;;;;;25.17;14.13;;;;;;;15.75;100.00;101812.19;5072322;28;20122;-63
2022/10/29 09:01:39;;;;;;;23.90;15.90;;;;;;;15.82;100.00;101807.59;5076337;28;20043;-66
2022/10/29 09:04:27;;;;;;;24.45;13.40;;;;;;;15.91;100.00;101809.06;5077392;28;20051;-65
2022/10/29 09:07:27;;;;;;;29.02;14.73;;;;;;;15.99;100.00;101795.38;5076381;28;20046;-63
2022/10/29 09:10:24;;;;;;;25.20;12.95;;;;;;;16.08;100.00;101801.38;5087897;28;20031;-64
2022/10/29 09:12:58;;;;;;;23.60;14.85;;;;;;;16.13;100.00;101793.50;5089660;28;20110;-64
2022/10/29 09:15:24;;;;;;;23.63;14.73;;;;;;;16.18;100.00;101785.63;5089938;28;20497;-64
2022/10/29 09:18:11;;;;;;;29.55;15.32;;;;;;;16.28;100.00;101787.06;5089556;28;20036;-64
2022/10/29 09:20:52;;;;;;;23.02;13.25;;;;;;;16.35;100.00;101786.00;5089682;28;20024;-64
2022/10/29 09:23:26;;;;;;;27.05;14.30;;;;;;;16.53;100.00;101777.25;5089112;28;20036;-64
2022/10/29 09:26:12;;;;;;;28.10;13.57;;;;;;;16.68;100.00;101785.03;5089466;28;20027;-64
2022/10/29 09:29:17;;;;;;;23.45;13.50;;;;;;;16.85;100.00;101790.78;5088857;28;20155;-64
2022/10/29 09:32:05;;;;;;;21.67;12.20;;;;;;;16.94;100.00;101772.50;5037422;28;20053;-63
2022/10/29 09:34:42;;;;;;;23.30;11.95;;;;;;;17.02;100.00;101775.75;5036077;28;20033;-65
2022/10/29 09:37:17;;;;;;;24.92;12.30;;;;;;;17.06;100.00;101784.25;5050123;28;20027;-66
2022/10/29 09:39:44;;;;;;;23.60;14.40;;;;;;;17.04;100.00;101783.63;5050867;28;20024;-66
2022/10/29 09:42:13;;;;;;;21.27;11.90;;;;;;;17.03;100.00;101782.00;5050032;28;20013;-64
2022/10/29 09:44:48;;;;;;;24.30;13.15;;;;;;;17.05;100.00;101780.69;5027146;28;20032;-64
2022/10/29 09:47:26;;;;;;;23.02;12.25;;;;;;;17.07;100.00;101775.09;5051324;28;20109;-63
2022/10/29 09:50:01;;;;;;;23.40;13.93;;;;;;;17.06;100.00;101785.06;5051951;28;20013;-64
2022/10/29 09:52:31;;;;;;;28.30;15.60;;;;;;;17.04;100.00;101776.38;5050929;28;20124;-64
2022/10/29 09:54:58;;;;;;;21.85;12.23;;;;;;;17.07;100.00;101786.72;5049330;28;20067;-67
2022/10/29 09:57:29;;;;;;;21.38;12.50;;;;;;;17.12;100.00;101777.16;5050413;28;20024;-68
2022/10/29 09:59:57;;;;;;;25.80;14.43;;;;;;;17.21;100.00;101778.53;5049270;28;20499;-67
2022/10/29 10:02:42;;;;;;;21.17;12.77;;;;;;;17.28;100.00;101755.88;5058728;28;20062;-64
2022/10/29 10:05:18;;;;;;;22.95;13.32;;;;;;;17.40;100.00;101753.31;5068739;28;20468;-64
2022/10/29 10:08:02;;;;;;;20.35;12.93;;;;;;;17.52;100.00;101742.63;5068095;28;20020;-67
2022/10/29 10:10:27;;;;;;;23.63;12.52;;;;;;;17.62;100.00;101742.13;5069037;28;20032;-67
2022/10/29 10:13:01;;;;;;;22.92;13.55;;;;;;;17.73;100.00;101742.22;5068577;28;20036;-67
2022/10/29 10:15:36;;;;;;;24.13;12.05;;;;;;;17.92;100.00;101740.41;5068908;28;20055;-67
2022/10/29 10:18:16;;;;;;;19.98;11.68;;;;;;;18.17;100.00;101742.22;5050109;28;20036;-64
2022/10/29 10:20:44;;;;;;;22.75;11.80;;;;;;;18.49;100.00;101750.94;5068827;28;20029;-65
2022/10/29 10:23:18;;;;;;;22.63;11.93;;;;;;;18.82;100.00;101753.25;5068038;28;20543;-65
2022/10/29 10:25:44;;;;;;;21.60;11.48;;;;;;;19.01;99.31;101750.50;5068514;28;20051;-64
2022/10/29 10:28:24;;;;;;;23.65;9.95;;;;;;;19.14;97.30;101749.47;5068693;28;20028;-64
2022/10/29 10:31:10;;;;;;;20.73;9.63;;;;;;;19.27;98.33;101746.56;5084109;28;20060;-65
2022/10/29 10:33:47;;;;;;;25.42;11.07;;;;;;;19.36;95.60;101749.72;5088183;28;20047;-64
2022/10/29 10:36:12;;;;;;;17.48;8.85;;;;;;;19.49;92.64;101749.50;5088605;28;20039;-64
2022/10/29 10:38:39;;;;;;;21.38;8.10;;;;;;;19.47;90.96;101735.41;5088505;28;20028;-64
2022/10/29 10:41:08;;;;;;;19.77;9.05;;;;;;;19.54;91.35;101741.50;5065290;28;21379;-71
2022/10/29 10:43:34;;;;;;;19.75;8.43;;;;;;;19.53;91.25;101742.56;5062259;28;20020;-71
2022/10/29 10:46:05;;;;;;;17.17;7.85;;;;;;;19.52;89.67;101745.50;5027123;28;20024;-69
2022/10/29 10:48:32;;;;;;;15.27;8.35;;;;;;;19.53;90.92;101736.34;5062561;28;20032;-68
2022/10/29 10:51:16;;;;;;;17.88;8.57;;;;;;;19.64;90.93;101733.63;5059776;28;20036;-72
2022/10/29 10:53:42;;;;;;;17.77;7.85;;;;;;;19.70;89.53;101719.22;5061933;28;20037;-68
2022/10/29 10:56:16;;;;;;;18.83;9.73;;;;;;;19.83;89.59;101714.59;5062531;28;20048;-73
2022/10/29 10:58:46;;;;;;;16.13;7.18;;;;;;;19.88;86.98;101720.09;5062407;28;20108;-73
2022/10/29 11:01:18;;;;;;;17.58;7.53;;;;;;;19.90;85.30;101715.28;5062178;28;20416;-71
2022/10/29 11:03:54;;;;;;;22.70;9.38;;;;;;;19.95;87.83;101715.41;5062197;28;20016;-70
2022/10/29 11:06:23;;;;;;;17.00;8.23;;;;;;;20.01;88.05;101711.72;5062004;28;20143;-70
2022/10/29 11:09:12;;;;;;;16.30;8.98;;;;;;;20.04;86.12;101710.44;5062444;28;20055;-70
2022/10/29 11:11:44;;;;;;;14.60;6.93;;;;;;;20.12;87.48;101713.63;5062123;28;20028;-70
2022/10/29 11:14:21;;;;;;;16.25;8.35;;;;;;;20.14;85.30;101722.28;5063719;28;20384;-71